Flight Track Log - Related Links

Times and Time Zones

All times are in EDT time to prevent confusion due to time zone crossing. See the N314K flight status page for this flight to view local times or setup timezone preferences in your user account.

Time Position Orientation Groundspeed Altitude Reporting Facility
EDT Latitude Longitude Course Direction KTS MPH feet Rate Location/Type
Mon 07:51:01 PM 41.2411 -72.1336 129° Southeast 161 185 4,500  Level Boston Center
Mon 07:52:02 PM 41.2331 -72.1944 260° West 162 186 4,500  Level Boston Center
Mon 07:53:03 PM 41.2269 -72.2553 262° West 163 188 4,500  Level Boston Center
Mon 07:54:39 PM 41.2167 -72.3500 262° West 163 188 4,500  Level New TRACON
Mon 07:55:39 PM 41.2167 -72.4167 270° West 168 193 4,500  Level New TRACON
Mon 07:56:00 PM -19.8813 -160.1580 129° Southeast  Level Estimated
Mon 07:56:33 PM 41.2167 -72.4500 270° West 165 190 4,500  Level New TRACON
Mon 07:57:33 PM 41.2000 -72.5167 252° West 162 186 4,500  Level New TRACON
Mon 07:58:33 PM 41.2000 -72.5833 270° West 163 188 4,500  Level New TRACON
Mon 07:59:33 PM 41.1833 -72.6333 246° West 165 190 4,500  Level New TRACON
Mon 08:00:33 PM 41.1833 -72.7000 270° West 167 192 4,500  Level New TRACON
Mon 08:01:33 PM 41.1833 -72.7500 270° West 164 189 4,500  Level New TRACON
Mon 08:02:33 PM 41.1667 -72.8167 252° West 165 190 4,500  Level New TRACON
Mon 08:03:33 PM 41.1667 -72.8833 270° West 164 189 4,500  Level New TRACON
Mon 08:04:33 PM 41.1667 -72.9333 270° West 167 192 4,500  Level New TRACON
Mon 08:05:33 PM 41.1500 -73.0000 252° West 162 186 4,500  Level New TRACON
Mon 08:06:33 PM 41.1500 -73.0667 270° West 165 190 4,500 -100 Level New TRACON
Mon 08:07:33 PM 41.1333 -73.1167 246° West 167 192 4,300 -300 Descending New TRACON
Mon 08:08:33 PM 41.1333 -73.1833 270° West 174 200 3,900 -300 Descending New TRACON
Mon 08:09:33 PM 41.1167 -73.2333 246° West 172 198 3,700 -300 Descending New TRACON
Mon 08:10:33 PM 41.1167 -73.3000 270° West 175 201 3,300 -450 Descending New TRACON
Mon 08:11:33 PM 41.1000 -73.3667 252° West 183 211 2,800 -500 Descending New TRACON
Mon 08:12:33 PM 41.1000 -73.4333 270° West 181 208 2,300 -571 Descending New TRACON
Mon 08:13:39 PM 41.0833 -73.5167 255° West 182 209 1,600 -381 Descending New TRACON
Mon 08:14:39 PM 41.0667 -73.5667 246° West 170 196 1,500 -100 Descending New TRACON

Login

Don't have an account? Register now (free) for customized features, flight alerts, and more!